createdAt,value
2022-07-27T00:01:15.567Z,56.61
2022-07-27T00:03:45.946Z,56.74
2022-07-27T00:06:14.190Z,56.85
2022-07-27T00:08:42.225Z,56.66
2022-07-27T00:11:11.596Z,56.85
2022-07-27T00:13:41.228Z,56.64
2022-07-27T00:16:09.437Z,56.46
2022-07-27T00:18:37.432Z,56.25
2022-07-27T00:21:05.358Z,56.20
2022-07-27T00:23:34.107Z,56.29
2022-07-27T00:26:02.059Z,56.79
2022-07-27T00:28:30.084Z,56.90
2022-07-27T00:30:59.509Z,56.78
2022-07-27T00:33:27.511Z,56.92
2022-07-27T00:35:55.536Z,56.78
2022-07-27T00:38:23.570Z,57.16
2022-07-27T00:40:51.606Z,57.77
2022-07-27T00:43:19.550Z,57.83
2022-07-27T00:45:48.657Z,58.19
2022-07-27T00:48:17.935Z,58.68
2022-07-27T00:50:48.098Z,58.44
2022-07-27T00:53:16.824Z,58.16
2022-07-27T00:55:45.891Z,57.91
2022-07-27T00:58:14.185Z,57.62
2022-07-27T01:00:42.161Z,57.49
2022-07-27T01:03:10.291Z,57.21
2022-07-27T01:05:42.539Z,57.86
2022-07-27T01:08:13.940Z,57.74
2022-07-27T01:10:42.587Z,58.25
2022-07-27T01:13:12.522Z,58.55
2022-07-27T01:15:43.114Z,58.90
2022-07-27T01:18:26.941Z,59.20
2022-07-27T01:20:57.015Z,59.41
2022-07-27T01:23:27.083Z,59.66
2022-07-27T01:25:55.407Z,59.99
2022-07-27T01:28:23.288Z,60.46
2022-07-27T01:30:51.699Z,61.05
2022-07-27T01:33:25.704Z,60.61
2022-07-27T01:35:55.542Z,60.73
2022-07-27T01:38:23.785Z,61.63
2022-07-27T01:40:54.732Z,62.67
2022-07-27T01:43:23.404Z,63.33
2022-07-27T01:45:51.599Z,63.42
2022-07-27T01:48:20.404Z,63.26
2022-07-27T01:50:51.213Z,63.11
2022-07-27T01:53:19.372Z,63.28
2022-07-27T01:55:47.360Z,63.42
2022-07-27T01:58:16.818Z,63.69
2022-07-27T02:00:44.765Z,63.59
2022-07-27T02:03:12.810Z,63.60
2022-07-27T02:05:40.933Z,63.55
2022-07-27T02:08:09.672Z,63.17
2022-07-27T02:10:58.589Z,63.06
2022-07-27T02:13:27.051Z,62.86
2022-07-27T02:15:55.174Z,62.52
2022-07-27T02:18:33.182Z,61.91
2022-07-27T02:21:04.535Z,61.46
2022-07-27T02:23:32.542Z,61.03
2022-07-27T02:26:01.200Z,60.76
2022-07-27T02:28:30.499Z,60.82
2022-07-27T02:30:58.469Z,60.66
2022-07-27T02:33:26.357Z,60.64
2022-07-27T02:35:54.514Z,60.46
2022-07-27T02:38:22.469Z,60.24
2022-07-27T02:40:50.379Z,60.12
2022-07-27T02:43:18.377Z,59.99
2022-07-27T02:45:48.452Z,59.65
2022-07-27T02:48:16.540Z,59.60
2022-07-27T02:50:44.605Z,59.78
2022-07-27T02:53:12.570Z,59.61
2022-07-27T02:55:40.572Z,60.03
2022-07-27T02:58:08.534Z,59.95
2022-07-27T03:00:36.437Z,60.56
2022-07-27T03:03:05.826Z,60.21
2022-07-27T03:05:33.690Z,59.75
2022-07-27T03:08:01.891Z,60.31
2022-07-27T03:10:29.779Z,60.37
2022-07-27T03:12:57.785Z,60.60
2022-07-27T03:15:26.111Z,60.73
2022-07-27T03:17:54.186Z,60.80
2022-07-27T03:20:23.551Z,60.85
2022-07-27T03:22:51.455Z,61.27
2022-07-27T03:25:19.332Z,61.25
2022-07-27T03:27:47.428Z,61.48
2022-07-27T03:30:15.680Z,61.60
2022-07-27T03:32:43.531Z,61.58
2022-07-27T03:35:11.570Z,61.79
2022-07-27T03:37:41.010Z,62.10
2022-07-27T03:40:10.783Z,61.85
2022-07-27T03:42:40.024Z,61.58
2022-07-27T03:45:09.576Z,61.77
2022-07-27T03:47:37.645Z,61.77
2022-07-27T03:50:06.358Z,61.98
2022-07-27T03:52:34.261Z,62.23
2022-07-27T03:55:03.822Z,62.42
2022-07-27T03:57:31.809Z,62.07
2022-07-27T03:59:59.893Z,62.46
2022-07-27T04:02:27.869Z,62.54
2022-07-27T04:04:55.761Z,62.72
2022-07-27T04:07:23.637Z,63.21
2022-07-27T04:09:51.626Z,63.62
2022-07-27T04:12:20.862Z,63.67
2022-07-27T04:14:49.231Z,63.47
2022-07-27T04:17:53.489Z,63.70
2022-07-27T04:20:06.542Z,64.02
2022-07-27T04:22:34.490Z,64.41
2022-07-27T04:25:02.429Z,64.01
2022-07-27T04:27:31.672Z,63.71
2022-07-27T04:29:59.797Z,63.23
2022-07-27T04:32:27.725Z,63.01
2022-07-27T04:34:55.800Z,62.74
2022-07-27T04:37:23.692Z,62.66
2022-07-27T04:39:51.658Z,61.93
2022-07-27T04:42:19.568Z,61.50
2022-07-27T04:44:48.841Z,61.17
2022-07-27T04:47:16.741Z,60.62
2022-07-27T04:49:44.646Z,60.20
2022-07-27T04:52:15.029Z,59.93
2022-07-27T04:54:43.103Z,59.63
2022-07-27T04:57:11.119Z,59.27
2022-07-27T04:59:39.098Z,59.38
2022-07-27T05:02:08.510Z,59.38
2022-07-27T05:04:36.515Z,59.65
2022-07-27T05:07:04.449Z,59.30
2022-07-27T05:09:32.373Z,58.95
2022-07-27T05:12:00.248Z,59.01
2022-07-27T05:14:28.144Z,58.73
2022-07-27T05:16:56.106Z,58.46
2022-07-27T05:19:40.395Z,58.53
2022-07-27T05:22:08.984Z,58.44
2022-07-27T05:24:37.108Z,58.29
2022-07-27T05:27:05.989Z,58.10
2022-07-27T05:29:33.930Z,58.25
2022-07-27T05:32:01.927Z,57.89
2022-07-27T05:34:31.896Z,58.05
2022-07-27T05:36:59.867Z,57.88
2022-07-27T05:39:27.829Z,57.94
2022-07-27T05:41:55.700Z,57.73
2022-07-27T05:44:24.074Z,57.68
2022-07-27T05:46:52.040Z,57.57
2022-07-27T05:49:20.079Z,57.96
2022-07-27T05:51:49.918Z,58.23
2022-07-27T05:54:18.510Z,58.19
2022-07-27T05:56:46.670Z,58.53
2022-07-27T05:59:14.928Z,58.49
2022-07-27T06:01:43.176Z,58.67
2022-07-27T06:04:14.423Z,58.81
2022-07-27T06:07:00.359Z,58.45
2022-07-27T06:09:29.805Z,58.88
2022-07-27T06:11:57.829Z,58.56
2022-07-27T06:14:25.784Z,58.45
2022-07-27T06:16:54.670Z,58.40
2022-07-27T06:19:22.669Z,58.41
2022-07-27T06:21:53.769Z,58.40
2022-07-27T06:24:22.040Z,58.28
2022-07-27T06:26:51.602Z,58.10
2022-07-27T06:29:19.476Z,57.53
2022-07-27T06:31:47.462Z,57.29
2022-07-27T06:34:15.786Z,57.37
2022-07-27T06:36:45.359Z,57.30
2022-07-27T06:39:14.027Z,56.96
2022-07-27T06:41:42.208Z,56.99
2022-07-27T06:44:16.167Z,56.73
2022-07-27T06:46:44.443Z,56.68
2022-07-27T06:49:12.652Z,56.31
2022-07-27T06:51:40.904Z,55.99
2022-07-27T06:54:08.824Z,55.85
2022-07-27T06:56:36.918Z,55.80
2022-07-27T06:59:04.927Z,55.89
2022-07-27T07:01:34.333Z,55.76
2022-07-27T07:04:02.735Z,55.63
2022-07-27T07:06:30.757Z,55.30
2022-07-27T07:08:58.688Z,55.30
2022-07-27T07:11:26.633Z,55.29
2022-07-27T07:13:54.633Z,55.26
2022-07-27T07:16:22.586Z,55.12
2022-07-27T07:18:52.652Z,55.01
2022-07-27T07:21:20.953Z,55.00
2022-07-27T07:23:49.006Z,54.73
2022-07-27T07:26:17.123Z,54.52
2022-07-27T07:28:45.110Z,54.42
2022-07-27T07:31:13.081Z,54.39
2022-07-27T07:33:41.030Z,54.31
2022-07-27T07:36:14.109Z,54.12
2022-07-27T07:38:43.112Z,54.08
2022-07-27T07:41:11.066Z,53.78
2022-07-27T07:43:39.819Z,53.40
2022-07-27T07:46:08.696Z,52.93
2022-07-27T07:48:39.001Z,52.59
2022-07-27T07:51:06.978Z,52.50
2022-07-27T07:53:41.137Z,52.40
2022-07-27T07:56:09.458Z,52.09
2022-07-27T07:58:37.409Z,52.12
2022-07-27T08:01:05.439Z,52.09
2022-07-27T08:03:33.424Z,51.78
2022-07-27T08:06:01.742Z,51.74
2022-07-27T08:08:31.239Z,51.63
2022-07-27T08:11:00.609Z,51.79
2022-07-27T08:13:28.559Z,51.25
2022-07-27T08:15:56.827Z,51.36
2022-07-27T08:18:24.768Z,51.40
2022-07-27T08:20:52.725Z,51.33
2022-07-27T08:23:20.718Z,50.97
2022-07-27T08:25:48.665Z,51.03
2022-07-27T08:28:17.921Z,51.21
2022-07-27T08:30:46.505Z,51.22
2022-07-27T08:33:14.475Z,51.19
2022-07-27T08:35:42.564Z,50.91
2022-07-27T08:38:11.042Z,51.09
2022-07-27T08:40:43.357Z,51.76
2022-07-27T08:43:20.202Z,51.63
2022-07-27T08:45:56.278Z,52.13
2022-07-27T08:48:25.791Z,51.79
2022-07-27T08:50:54.108Z,51.88
2022-07-27T08:53:23.314Z,51.85
2022-07-27T08:55:51.402Z,51.10
2022-07-27T08:58:19.522Z,50.75
2022-07-27T09:00:49.762Z,50.68
2022-07-27T09:03:21.712Z,50.64
2022-07-27T09:05:52.462Z,50.52
2022-07-27T09:08:24.671Z,49.92
2022-07-27T09:10:55.543Z,49.43
2022-07-27T09:13:25.927Z,48.72
2022-07-27T09:16:17.112Z,48.40
2022-07-27T09:18:45.419Z,47.78
2022-07-27T09:21:16.919Z,47.60
2022-07-27T09:23:48.088Z,47.42
2022-07-27T09:26:35.914Z,47.18
2022-07-27T09:29:06.709Z,47.06
2022-07-27T09:31:41.759Z,46.02
2022-07-27T09:34:11.788Z,45.82
2022-07-27T09:36:52.372Z,45.34
2022-07-27T09:39:21.378Z,45.15
2022-07-27T09:41:50.276Z,44.87
2022-07-27T09:44:41.996Z,44.18
2022-07-27T09:47:26.381Z,43.74
2022-07-27T09:49:57.900Z,43.32
2022-07-27T09:52:28.009Z,42.74
2022-07-27T09:55:02.752Z,42.60
2022-07-27T09:57:30.986Z,42.75
2022-07-27T10:00:10.199Z,43.27
2022-07-27T10:02:38.730Z,43.17
2022-07-27T10:05:09.159Z,43.26
2022-07-27T10:07:37.424Z,42.81
2022-07-27T10:10:06.620Z,43.10
2022-07-27T10:12:34.606Z,42.90
2022-07-27T10:15:02.600Z,43.20
2022-07-27T10:17:31.294Z,43.30
2022-07-27T10:19:59.543Z,43.14
2022-07-27T10:22:51.485Z,42.66
2022-07-27T10:25:19.888Z,42.69
2022-07-27T10:27:49.389Z,43.27
2022-07-27T10:30:27.585Z,43.09
2022-07-27T10:33:00.169Z,42.93
2022-07-27T10:35:36.451Z,42.64
2022-07-27T10:38:11.639Z,42.53
2022-07-27T10:40:40.185Z,42.41
2022-07-27T10:43:11.628Z,42.60
2022-07-27T10:45:59.978Z,42.20
2022-07-27T10:48:36.229Z,42.05
2022-07-27T10:51:05.190Z,42.01
2022-07-27T10:54:09.313Z,41.88
2022-07-27T10:56:45.481Z,41.78
2022-07-27T10:59:13.458Z,41.31
2022-07-27T11:01:56.665Z,41.31
2022-07-27T11:04:25.857Z,41.65
2022-07-27T11:07:23.678Z,41.82
2022-07-27T11:10:04.731Z,40.77
2022-07-27T11:12:33.237Z,40.23
2022-07-27T11:15:02.734Z,40.60
2022-07-27T11:20:23.961Z,39.32
2022-07-27T11:25:41.921Z,38.22
2022-07-27T11:28:09.836Z,37.71
2022-07-27T11:30:37.846Z,37.82
2022-07-27T11:33:07.247Z,38.33
2022-07-27T11:35:35.555Z,38.10
2022-07-27T11:38:07.630Z,38.13
2022-07-27T11:40:56.764Z,37.63
2022-07-27T11:43:36.938Z,37.80
2022-07-27T11:46:13.903Z,37.97
2022-07-27T11:49:08.402Z,38.45
2022-07-27T11:51:38.758Z,37.73
2022-07-27T11:54:08.673Z,37.81
2022-07-27T11:56:39.942Z,37.86
2022-07-27T11:59:13.704Z,37.06
2022-07-27T12:01:45.121Z,37.07
2022-07-27T12:04:19.790Z,36.80
2022-07-27T12:06:55.240Z,36.50
2022-07-27T12:09:23.893Z,36.69
2022-07-27T12:11:57.187Z,37.23
2022-07-27T12:14:30.378Z,37.80
2022-07-27T12:17:12.455Z,37.84
2022-07-27T12:19:40.937Z,37.97
2022-07-27T12:22:09.708Z,37.58
2022-07-27T12:24:39.799Z,36.97
2022-07-27T12:27:14.342Z,35.98
2022-07-27T12:30:03.509Z,34.31
2022-07-27T12:32:33.694Z,34.93
2022-07-27T12:35:02.321Z,34.24
2022-07-27T12:37:31.804Z,33.93
2022-07-27T12:40:01.267Z,33.39
2022-07-27T12:42:37.650Z,33.09
2022-07-27T12:45:13.512Z,33.78
2022-07-27T12:47:41.537Z,33.84
2022-07-27T12:50:11.914Z,33.83
2022-07-27T12:52:44.001Z,33.94
2022-07-27T12:55:15.873Z,33.25
2022-07-27T12:57:55.698Z,33.89
2022-07-27T13:00:44.819Z,32.42
2022-07-27T13:03:12.840Z,32.19
2022-07-27T13:05:41.641Z,32.74
2022-07-27T13:08:10.626Z,32.29
2022-07-27T13:10:39.590Z,33.21
2022-07-27T13:14:04.151Z,33.51
2022-07-27T13:16:33.804Z,33.12
2022-07-27T13:19:01.872Z,33.42
2022-07-27T13:21:29.905Z,33.49
2022-07-27T13:23:58.380Z,35.06
2022-07-27T13:26:27.615Z,35.12
2022-07-27T13:28:55.876Z,34.16
2022-07-27T13:31:24.180Z,33.72
2022-07-27T13:33:53.621Z,33.67
2022-07-27T13:36:22.414Z,34.54
2022-07-27T13:38:50.354Z,35.79
2022-07-27T13:41:18.406Z,36.59
2022-07-27T13:43:46.419Z,36.83
2022-07-27T13:46:14.527Z,38.68
2022-07-27T13:48:42.521Z,39.04
2022-07-27T13:51:11.771Z,39.13
2022-07-27T13:53:39.656Z,39.05
2022-07-27T13:56:07.636Z,37.77
2022-07-27T13:58:35.732Z,38.15
2022-07-27T14:01:07.507Z,38.49
2022-07-27T14:03:35.974Z,38.17
2022-07-27T14:06:04.194Z,38.27
2022-07-27T14:08:35.854Z,39.00
2022-07-27T14:11:03.930Z,38.76
2022-07-27T14:13:32.769Z,37.68
2022-07-27T14:16:01.598Z,38.39
2022-07-27T14:18:32.052Z,39.11
2022-07-27T14:21:01.758Z,40.82
2022-07-27T14:23:30.335Z,41.33
2022-07-27T14:26:00.707Z,41.59
2022-07-27T14:28:29.860Z,41.70
2022-07-27T14:30:58.704Z,42.16
2022-07-27T14:33:33.196Z,41.42
2022-07-27T14:36:05.474Z,38.86
2022-07-27T14:38:33.440Z,37.00
2022-07-27T14:41:02.819Z,36.04
2022-07-27T14:43:31.572Z,34.94
2022-07-27T14:46:00.239Z,34.67
2022-07-27T14:48:55.556Z,33.80
2022-07-27T14:51:17.002Z,33.57
2022-07-27T14:53:45.064Z,33.47
2022-07-27T14:56:14.748Z,33.65
2022-07-27T14:58:43.015Z,33.92
2022-07-27T15:01:10.973Z,34.37
2022-07-27T15:03:38.953Z,34.64
2022-07-27T15:06:07.205Z,35.39
2022-07-27T15:08:35.154Z,37.12
2022-07-27T15:11:03.086Z,37.68
2022-07-27T15:13:32.452Z,38.11
2022-07-27T15:16:00.495Z,38.93
2022-07-27T15:18:28.613Z,39.57
2022-07-27T15:20:56.817Z,39.52
2022-07-27T15:23:24.689Z,39.73
2022-07-27T15:25:52.714Z,40.19
2022-07-27T15:28:20.794Z,40.13
2022-07-27T15:30:50.120Z,40.48
2022-07-27T15:33:18.091Z,40.63
2022-07-27T15:35:46.034Z,41.15
2022-07-27T15:38:14.041Z,40.90
2022-07-27T15:40:42.507Z,41.14
2022-07-27T15:43:14.001Z,41.17
2022-07-27T15:45:43.947Z,41.74
2022-07-27T15:48:13.674Z,41.72
2022-07-27T15:50:43.466Z,41.92
2022-07-27T15:53:12.083Z,42.07
2022-07-27T15:55:40.121Z,41.84
2022-07-27T15:58:08.645Z,42.27
2022-07-27T16:00:41.266Z,42.40
2022-07-27T16:03:10.111Z,42.42
2022-07-27T16:05:40.738Z,42.70
2022-07-27T16:08:09.918Z,42.77
2022-07-27T16:10:38.778Z,42.64
2022-07-27T16:13:07.203Z,42.28
2022-07-27T16:15:50.001Z,42.02
2022-07-27T16:18:18.023Z,41.95
2022-07-27T16:20:47.390Z,41.56
2022-07-27T16:23:21.189Z,41.65
2022-07-27T16:26:04.152Z,42.02
2022-07-27T16:28:33.876Z,41.79
2022-07-27T16:31:01.921Z,41.94
2022-07-27T16:33:30.291Z,42.03
2022-07-27T16:36:00.072Z,41.94
2022-07-27T16:38:28.441Z,41.91
2022-07-27T16:40:56.390Z,41.84
2022-07-27T16:43:37.497Z,42.04
2022-07-27T16:46:10.047Z,42.41
2022-07-27T16:48:42.693Z,42.66
2022-07-27T16:51:14.403Z,43.02
2022-07-27T16:53:43.794Z,43.32
2022-07-27T16:56:12.251Z,43.43
2022-07-27T16:58:40.572Z,43.61
2022-07-27T17:01:09.314Z,43.91
2022-07-27T17:03:37.761Z,44.27
2022-07-27T17:06:08.866Z,44.58
2022-07-27T17:08:38.195Z,44.81
2022-07-27T17:11:06.898Z,44.89
2022-07-27T17:13:37.089Z,45.28
2022-07-27T17:16:06.524Z,45.16
2022-07-27T17:18:40.235Z,45.36
2022-07-27T17:21:12.781Z,45.42
2022-07-27T17:23:44.037Z,45.58
2022-07-27T17:26:15.010Z,45.83
2022-07-27T17:28:43.333Z,45.77
2022-07-27T17:31:13.224Z,46.11
2022-07-27T17:33:42.246Z,46.22
2022-07-27T17:36:15.169Z,46.73
2022-07-27T17:38:45.226Z,47.21
2022-07-27T17:41:13.537Z,47.49
2022-07-27T17:43:42.265Z,48.10
2022-07-27T17:46:12.654Z,49.26
2022-07-27T17:48:41.531Z,49.69
2022-07-27T17:51:10.577Z,50.36
2022-07-27T17:53:38.913Z,51.04
2022-07-27T17:56:08.536Z,51.60
2022-07-27T17:58:36.682Z,52.62
2022-07-27T18:01:04.871Z,53.05
2022-07-27T18:03:33.027Z,53.31
2022-07-27T18:06:01.540Z,54.06
2022-07-27T18:08:29.657Z,54.46
2022-07-27T18:10:57.692Z,55.21
2022-07-27T18:13:39.047Z,55.50
2022-07-27T18:16:09.292Z,55.93
2022-07-27T18:18:37.855Z,55.56
2022-07-27T18:21:06.711Z,56.08
2022-07-27T18:23:34.881Z,56.15
2022-07-27T18:26:02.963Z,56.38
2022-07-27T18:28:39.194Z,56.10
2022-07-27T18:31:09.518Z,55.99
2022-07-27T18:33:37.871Z,56.15
2022-07-27T18:36:06.475Z,56.29
2022-07-27T18:38:34.472Z,56.14
2022-07-27T18:41:02.914Z,56.03
2022-07-27T18:43:32.250Z,56.26
2022-07-27T18:46:00.480Z,55.51
2022-07-27T18:48:28.828Z,54.96
2022-07-27T18:50:57.233Z,54.46
2022-07-27T18:53:25.156Z,54.54
2022-07-27T18:55:56.452Z,54.24
2022-07-27T18:58:25.525Z,53.92
2022-07-27T19:00:55.594Z,54.08
2022-07-27T19:03:24.720Z,54.41
2022-07-27T19:05:56.201Z,54.02
2022-07-27T19:08:24.276Z,54.05
2022-07-27T19:10:52.493Z,54.36
2022-07-27T19:13:21.082Z,54.23
2022-07-27T19:15:49.166Z,55.06
2022-07-27T19:18:18.524Z,55.18
2022-07-27T19:20:46.512Z,55.64
2022-07-27T19:23:14.438Z,55.63
2022-07-27T19:25:42.364Z,55.73
2022-07-27T19:28:10.322Z,56.64
2022-07-27T19:30:39.223Z,57.10
2022-07-27T19:33:07.146Z,57.02
2022-07-27T19:35:36.478Z,57.36
2022-07-27T19:38:04.677Z,57.73
2022-07-27T19:40:44.138Z,57.91
2022-07-27T19:43:13.817Z,57.90
2022-07-27T19:45:42.115Z,58.23
2022-07-27T19:48:10.521Z,58.36
2022-07-27T19:50:40.040Z,58.10
2022-07-27T19:53:08.245Z,57.77
2022-07-27T19:55:36.191Z,57.99
2022-07-27T19:58:04.217Z,58.08
2022-07-27T20:00:32.358Z,57.79
2022-07-27T20:03:00.348Z,58.27
2022-07-27T20:05:28.784Z,58.60
2022-07-27T20:07:58.056Z,58.70
2022-07-27T20:10:26.324Z,57.92
2022-07-27T20:12:54.458Z,57.65
2022-07-27T20:15:22.779Z,57.56
2022-07-27T20:17:51.052Z,57.61
2022-07-27T20:20:19.029Z,58.49
2022-07-27T20:22:47.195Z,58.93
2022-07-27T20:25:18.394Z,59.48
2022-07-27T20:27:47.075Z,59.74
2022-07-27T20:30:17.254Z,59.85
2022-07-27T20:32:45.397Z,60.34
2022-07-27T20:35:13.316Z,60.32
2022-07-27T20:37:41.395Z,60.32
2022-07-27T20:40:12.003Z,60.58
2022-07-27T20:42:41.660Z,60.61
2022-07-27T20:45:11.569Z,60.91
2022-07-27T20:47:39.756Z,60.69
2022-07-27T20:50:09.287Z,61.23
2022-07-27T20:52:37.320Z,61.66
2022-07-27T20:55:06.112Z,61.93
2022-07-27T20:57:34.058Z,62.11
2022-07-27T21:00:03.578Z,62.10
2022-07-27T21:02:31.797Z,62.25
2022-07-27T21:04:59.941Z,62.61
2022-07-27T21:07:28.168Z,62.51
2022-07-27T21:09:56.117Z,62.17
2022-07-27T21:12:24.088Z,62.51
2022-07-27T21:14:52.190Z,61.69
2022-07-27T21:17:21.506Z,62.25
2022-07-27T21:19:49.425Z,62.40
2022-07-27T21:22:17.392Z,62.32
2022-07-27T21:24:44.331Z,61.81
2022-07-27T21:27:14.442Z,62.27
2022-07-27T21:29:42.654Z,62.06
2022-07-27T21:32:10.615Z,62.05
2022-07-27T21:34:39.902Z,62.79
2022-07-27T21:37:07.814Z,63.61
2022-07-27T21:39:36.058Z,64.09
2022-07-27T21:42:04.186Z,64.45
2022-07-27T21:44:32.436Z,64.39
2022-07-27T21:47:00.664Z,63.98
2022-07-27T21:49:32.412Z,63.77
2022-07-27T21:52:04.237Z,63.72
2022-07-27T21:54:32.115Z,64.25
2022-07-27T21:57:00.025Z,64.51
2022-07-27T21:59:28.024Z,64.47
2022-07-27T22:01:55.986Z,64.49
2022-07-27T22:04:24.000Z,64.56
2022-07-27T22:06:51.977Z,64.52
2022-07-27T22:09:21.278Z,63.97
2022-07-27T22:11:49.156Z,63.66
2022-07-27T22:14:17.795Z,63.64
2022-07-27T22:16:46.134Z,63.21
2022-07-27T22:19:14.135Z,62.83
2022-07-27T22:21:42.060Z,61.92
2022-07-27T22:24:10.452Z,62.21
2022-07-27T22:26:39.988Z,62.06
2022-07-27T22:29:07.968Z,62.00
2022-07-27T22:31:35.944Z,61.87
2022-07-27T22:34:04.072Z,61.70
2022-07-27T22:36:32.478Z,61.93
2022-07-27T22:39:00.495Z,61.71
2022-07-27T22:41:28.533Z,61.66
2022-07-27T22:43:57.784Z,61.46
2022-07-27T22:46:26.083Z,61.57
2022-07-27T22:48:54.270Z,61.68
2022-07-27T22:51:22.582Z,61.29
2022-07-27T22:53:50.505Z,61.42
2022-07-27T22:56:18.746Z,61.46
2022-07-27T22:58:46.701Z,61.35
2022-07-27T23:01:47.412Z,60.81
2022-07-27T23:04:04.145Z,61.07
2022-07-27T23:06:32.064Z,60.91
2022-07-27T23:08:59.981Z,61.15
2022-07-27T23:11:28.001Z,61.47
2022-07-27T23:13:56.122Z,61.46
2022-07-27T23:16:25.444Z,61.57
2022-07-27T23:18:53.360Z,61.93
2022-07-27T23:21:22.061Z,61.70
2022-07-27T23:23:54.047Z,62.21
2022-07-27T23:26:22.946Z,62.22
2022-07-27T23:28:54.324Z,62.34
2022-07-27T23:31:22.437Z,62.65
2022-07-27T23:33:51.818Z,62.76
2022-07-27T23:36:19.789Z,62.79
2022-07-27T23:38:47.898Z,63.10
2022-07-27T23:41:16.745Z,63.17
2022-07-27T23:43:45.077Z,63.58
2022-07-27T23:46:13.404Z,63.45
2022-07-27T23:48:41.430Z,63.68
2022-07-27T23:51:16.595Z,63.86
2022-07-27T23:53:44.526Z,63.69
2022-07-27T23:56:12.444Z,63.97
2022-07-27T23:58:40.531Z,64.04
